CDT,Max TemperatureF,Mean TemperatureF,Min TemperatureF,Max Dew PointF,MeanDew PointF,Min DewpointF,Max Humidity, Mean Humidity, Min Humidity, Max Sea Level PressureIn, Mean Sea Level PressureIn, Min Sea Level PressureIn, Max VisibilityMiles, Mean VisibilityMiles, Min VisibilityMiles, Max Wind SpeedMPH, Mean Wind SpeedMPH, Max Gust SpeedMPH,PrecipitationIn, CloudCover, Events, WindDirDegrees
2012-9-1,96,74,53,57,49,45,88,44,18,30.13,30.07,29.98,10.0,10.0,10.0,20,9,33,0.00,0,,185
2012-9-2,96,79,62,59,53,48,82,44,20,30.03,29.98,29.93,10.0,10.0,10.0,17,10,23,0.00,0,,23
2012-9-3,87,76,62,64,54,50,72,47,33,30.06,30.00,29.95,10.0,10.0,10.0,17,9,26,0.00,2,Rain,294
2012-9-4,95,78,60,64,56,50,88,59,22,30.03,29.96,29.89,10.0,9.9,5.0,15,7,32,0.00,1,Rain,221
2012-9-5,86,70,55,59,47,39,100,51,20,30.09,30.02,29.92,10.0,10.0,10.0,22,11,29,0.00,0,,30
2012-9-6,96,74,53,63,53,39,88,55,15,30.07,29.96,29.85,10.0,10.0,10.0,13,7,22,0.00,0,,184
2012-9-7,71,61,51,63,51,46,100,61,41,30.29,30.14,29.92,10.0,9.5,2.5,22,13,34,0.00,3,Rain,5
2012-9-8,84,63,42,48,43,37,100,54,22,30.34,30.26,30.16,10.0,10.0,10.0,15,8,24,0.00,0,,309
2012-9-9,82,64,46,48,43,36,76,49,26,30.31,30.22,30.13,10.0,10.0,10.0,17,8,22,0.00,0,,118
2012-9-10,93,72,50,48,45,43,82,44,17,30.13,30.01,29.91,10.0,10.0,10.0,24,14,34,0.00,0,,173
2012-9-11,96,79,62,52,47,43,49,34,17,29.94,29.86,29.78,10.0,10.0,7.0,17,12,24,0.00,0,,169
2012-9-12,78,64,51,52,46,37,100,60,35,30.37,30.10,29.82,10.0,8.8,4.0,37,21,45,0.00,4,Rain,19
2012-9-13,66,57,44,52,46,37,100,75,35,30.49,30.44,30.37,10.0,9.7,5.0,14,8,,0.00,2,,33
2012-9-14,78,58,39,45,42,39,100,61,28,30.47,30.39,30.31,10.0,10.0,10.0,14,7,20,0.00,0,,199
2012-9-15,80,60,41,46,40,37,87,52,21,30.33,30.21,30.09,10.0,10.0,10.0,13,7,17,0.00,0,,182
2012-9-16,87,64,41,48,42,37,100,50,18,30.13,30.01,29.91,10.0,10.0,10.0,18,9,23,0.00,0,,188
2012-9-17,68,56,44,46,43,37,81,62,40,30.18,30.08,29.95,10.0,10.0,10.0,21,12,29,0.00,1,,356
2012-9-18,82,60,37,46,40,36,100,57,23,30.18,30.08,29.98,10.0,9.8,7.0,20,7,24,0.00,0,,265
2012-9-19,89,68,46,43,39,36,71,41,18,30.11,30.02,29.98,10.0,10.0,7.0,23,11,32,0.00,0,,314
2012-9-20,82,63,44,41,38,34,71,43,21,30.14,30.08,30.00,10.0,10.0,10.0,16,7,24,0.00,0,,212
2012-9-21,84,66,48,41,38,36,62,40,21,30.11,30.06,30.03,10.0,10.0,7.0,23,10,29,0.00,0,,308
2012-9-22,73,58,44,37,36,34,71,45,25,30.32,30.24,30.10,10.0,10.0,10.0,15,9,18,0.00,0,,72
2012-9-23,73,60,46,41,34,32,62,42,25,30.27,30.21,30.14,10.0,10.0,10.0,20,11,26,0.00,0,,154
2012-9-24,80,62,44,50,45,39,87,58,30,30.14,29.99,29.88,10.0,9.9,7.0,13,6,16,0.00,0,,118
2012-9-25,75,60,46,52,49,43,93,68,44,29.97,29.92,29.89,10.0,10.0,10.0,15,6,20,0.00,3,,71
2012-9-26,75,65,55,55,54,52,94,71,47,30.19,30.08,29.96,10.0,10.0,10.0,20,7,23,0.00,5,,66
2012-9-27,71,61,51,59,55,52,100,82,53,30.23,30.18,30.14,10.0,7.9,0.2,16,7,23,0.00,6,Fog-Rain,131
2012-9-28,71,63,51,59,52,45,100,73,38,30.21,30.18,30.14,10.0,9.2,3.0,14,7,17,0.00,6,,122
2012-9-29,71,58,46,59,54,45,100,85,53,30.19,30.15,30.09,10.0,7.1,0.2,10,5,17,0.00,4,Fog,173
2012-9-30,80,63,46,59,53,46,100,75,34,30.12,30.03,29.94,10.0,6.3,0.2,25,7,31,0.00,4,Fog-Rain,212